Aaronsburg, Pennsylvania
Current Conditions -  °F | °C
As of 10:55 PM on Sunday 25 Jan 2015 (Local Time) from KUNV Reporting Station
Light Snow Light Snow  
Wind Chill: 15°   Ceiling: 900
Heat Index: 26°   Visibility: 1.7mi
Dew Point: 24°   Wind: 14mph
Humidity: 89%   Direction: 40°NE
Pressure: 29.87"   Gusts: NA
Location:  40.9°N, 77.45°W
Report Text: KUNV 260355Z AUTO 04012KT 1 3/4SM -SN BKN009 BKN016 OVC029 M03/M05 A2987 RMK AO2 T10311047 400151031
Loading
Personal Weather Stations






























Interactive Weather Map New forecast layout! Learn more

10-Day Weather Forecast

Advertisements
Track Severe Weather on mobile